KSBA

Santa Barbara Municipal Airport

Santa Barbara, California, USA
METAR KSBA 110153Z 00000KT 10SM CLR 14/12 A3000 RMK AO2 SLP159 T01390122
Observed Flight Rules
Dec-11 @ 01:53 UTC (31 minutes ago) Visual Flight Rules
Visibility Clouds
10 miles
  • Clear skies
Temperatures Readings
Current 14°C / 57°F
Dewpoint 12°C / 54°F
Humidity 88%
Altimeter 30" Hg
Pressure 1015.9 hPa
Elevation 3
METAR KSBA 110153Z 00000KT 10SM CLR 14/12 A3000 RMK AO2 SLP159 T01390122
Observed Flight Rules
Dec-11 @ 01:53 UTC
(31 minutes ago)
VFR
Clouds
  • Clear skies
Temperature Dewpoint
14°C / 57°F 12°C / 54°F
Humidity Altimeter Pressure
88% 30" Hg 1015.9 hPa